Time;durP1;ratioP1;P1;durP2;ratioP2;P2;SDS_P1;SDS_P2;PMS_P1;PMS_P2;Temp;Humidity;BMP_temperature;BMP_pressure;BME280_temperature;BME280_humidity;BME280_pressure;Samples;Min_cycle;Max_cycle;Signal;HPM_P1;HPM_P2
2023/08/23 00:01:09;;;;;;;7.93;5.40;;;21.60;99.90;;;;;;5092627;28;20327;-57
2023/08/23 00:03:51;;;;;;;9.77;5.25;;;21.60;99.90;;;;;;5093033;28;20203;-57
2023/08/23 00:06:19;;;;;;;7.25;4.72;;;21.60;99.90;;;;;;5091998;28;20678;-56
2023/08/23 00:08:49;;;;;;;7.75;5.20;;;21.50;99.90;;;;;;5092558;28;20664;-56
2023/08/23 00:11:16;;;;;;;5.60;4.75;;;21.50;99.90;;;;;;5092407;28;20815;-55
2023/08/23 00:13:44;;;;;;;11.75;5.63;;;21.50;99.90;;;;;;5092978;28;20212;-56
2023/08/23 00:16:12;;;;;;;5.88;5.35;;;21.50;99.90;;;;;;5092365;28;20211;-56
2023/08/23 00:18:40;;;;;;;9.35;5.20;;;21.40;99.90;;;;;;5092580;28;20207;-56
2023/08/23 00:21:08;;;;;;;9.38;5.40;;;21.40;99.90;;;;;;5092114;28;20758;-56
2023/08/23 00:23:37;;;;;;;10.60;5.20;;;21.40;99.90;;;;;;5092594;28;20767;-56
2023/08/23 00:26:06;;;;;;;6.28;5.15;;;21.40;99.90;;;;;;5091714;28;20207;-56
2023/08/23 00:28:34;;;;;;;9.70;5.47;;;21.40;99.90;;;;;;5092422;28;20196;-57
2023/08/23 00:31:02;;;;;;;10.43;5.20;;;21.40;99.90;;;;;;5090651;28;20251;-57
2023/08/23 00:33:30;;;;;;;13.63;5.82;;;21.30;99.90;;;;;;5091867;28;20200;-58
2023/08/23 00:35:58;;;;;;;8.07;5.50;;;21.30;99.90;;;;;;5091936;28;20232;-58
2023/08/23 00:38:26;;;;;;;6.50;5.63;;;21.20;99.90;;;;;;5092197;28;20287;-58
2023/08/23 00:40:54;;;;;;;10.40;6.05;;;21.20;99.90;;;;;;5092140;28;20252;-57
2023/08/23 00:43:23;;;;;;;10.23;5.28;;;21.10;99.90;;;;;;5092067;28;20734;-58
2023/08/23 00:45:51;;;;;;;8.77;5.85;;;21.10;99.90;;;;;;5091916;28;20285;-58
2023/08/23 00:48:19;;;;;;;9.07;5.57;;;21.10;99.90;;;;;;5091995;28;20250;-58
2023/08/23 00:50:47;;;;;;;7.28;5.68;;;21.10;99.90;;;;;;5092149;28;20319;-57
2023/08/23 00:53:15;;;;;;;7.50;6.00;;;21.00;99.90;;;;;;5091618;28;20727;-57
2023/08/23 00:55:43;;;;;;;12.48;5.50;;;21.00;99.90;;;;;;5087683;28;20283;-58
2023/08/23 00:58:10;;;;;;;9.82;5.68;;;21.00;99.90;;;;;;5072780;28;20299;-56
2023/08/23 01:00:40;;;;;;;11.18;5.75;;;20.90;99.90;;;;;;5091829;28;20251;-57
2023/08/23 01:03:08;;;;;;;8.95;5.95;;;20.90;99.90;;;;;;5092261;28;20212;-57
2023/08/23 01:05:40;;;;;;;12.13;5.95;;;20.90;99.90;;;;;;5092069;28;20204;-57
2023/08/23 01:08:12;;;;;;;6.28;5.45;;;20.90;99.90;;;;;;5075968;28;20266;-58
2023/08/23 01:10:45;;;;;;;9.23;5.60;;;20.90;99.90;;;;;;5087279;28;20289;-59
2023/08/23 01:13:15;;;;;;;9.85;5.35;;;20.80;99.90;;;;;;5091615;28;20286;-58
2023/08/23 01:15:44;;;;;;;11.70;6.43;;;20.80;99.90;;;;;;5091604;28;20675;-58
2023/08/23 01:18:12;;;;;;;9.23;5.90;;;20.70;99.90;;;;;;5091757;28;20203;-58
2023/08/23 01:20:40;;;;;;;7.30;5.43;;;20.70;99.90;;;;;;5091870;28;20228;-58
2023/08/23 01:23:12;;;;;;;6.43;5.68;;;20.70;99.90;;;;;;5091640;28;20211;-57
2023/08/23 01:25:43;;;;;;;12.50;5.88;;;20.70;99.90;;;;;;5091319;28;20204;-57
2023/08/23 01:28:11;;;;;;;9.32;6.10;;;20.70;99.90;;;;;;5091730;28;20257;-56
2023/08/23 01:30:39;;;;;;;7.85;5.72;;;20.70;99.90;;;;;;5091703;28;20846;-56
2023/08/23 01:33:12;;;;;;;10.10;5.60;;;20.70;99.90;;;;;;5091724;28;20293;-57
2023/08/23 01:35:43;;;;;;;8.30;5.57;;;20.70;99.90;;;;;;5091518;28;20243;-58
2023/08/23 01:38:12;;;;;;;9.00;6.00;;;20.60;99.90;;;;;;5092776;28;20302;-58
2023/08/23 01:40:40;;;;;;;8.82;5.95;;;20.60;99.90;;;;;;5095839;28;20677;-59
2023/08/23 01:43:07;;;;;;;7.85;5.45;;;20.50;99.90;;;;;;5095679;28;20208;-59
2023/08/23 01:45:35;;;;;;;10.25;5.93;;;20.50;99.90;;;;;;5095218;28;20204;-59
2023/08/23 01:48:03;;;;;;;8.15;5.68;;;20.60;99.90;;;;;;5088375;28;20211;-59
2023/08/23 01:50:31;;;;;;;10.10;5.75;;;20.50;99.90;;;;;;5074934;28;20708;-58
2023/08/23 01:52:59;;;;;;;10.20;6.40;;;20.50;99.90;;;;;;5074656;28;20248;-59
2023/08/23 01:55:28;;;;;;;10.68;6.53;;;20.50;99.90;;;;;;5075192;28;20377;-56
2023/08/23 01:57:57;;;;;;;8.18;6.10;;;20.50;99.90;;;;;;5089380;28;20232;-56
2023/08/23 02:00:25;;;;;;;6.00;5.32;;;20.40;99.90;;;;;;5095043;28;20262;-59
2023/08/23 02:02:53;;;;;;;10.50;5.95;;;20.40;99.90;;;;;;5095091;28;20204;-58
2023/08/23 02:05:21;;;;;;;9.63;6.00;;;20.40;99.90;;;;;;5095017;28;20208;-59
2023/08/23 02:07:49;;;;;;;9.77;6.22;;;20.40;99.90;;;;;;5095194;28;20208;-58
2023/08/23 02:10:17;;;;;;;11.23;6.00;;;20.40;99.90;;;;;;5094183;28;20285;-58
2023/08/23 02:12:46;;;;;;;13.13;6.03;;;20.40;99.90;;;;;;5074880;28;20648;-57
2023/08/23 02:15:14;;;;;;;5.97;5.53;;;20.30;99.90;;;;;;5080964;28;20792;-59
2023/08/23 02:17:42;;;;;;;7.00;5.90;;;20.30;99.90;;;;;;5094566;28;20218;-58
2023/08/23 02:20:11;;;;;;;14.93;6.22;;;20.20;99.90;;;;;;5094923;28;20238;-58
2023/08/23 02:22:39;;;;;;;10.45;6.13;;;20.20;99.90;;;;;;5086665;28;20224;-58
2023/08/23 02:25:07;;;;;;;13.80;6.20;;;20.20;99.90;;;;;;5094824;28;20291;-58
2023/08/23 02:27:35;;;;;;;11.73;6.47;;;20.10;99.90;;;;;;5094821;28;20232;-58
2023/08/23 02:30:06;;;;;;;11.00;6.70;;;20.10;99.90;;;;;;5081766;28;20684;-58
2023/08/23 02:32:34;;;;;;;7.65;6.30;;;20.00;99.90;;;;;;5083330;28;20232;-58
2023/08/23 02:35:03;;;;;;;11.52;6.30;;;20.00;99.90;;;;;;5084650;28;20280;-58
2023/08/23 02:37:31;;;;;;;6.45;5.90;;;20.00;99.90;;;;;;5094773;28;20243;-56
2023/08/23 02:39:59;;;;;;;7.95;6.53;;;19.90;99.90;;;;;;5094726;28;20282;-56
2023/08/23 02:42:26;;;;;;;10.20;6.68;;;19.90;99.90;;;;;;5094563;28;20266;-56
2023/08/23 02:44:54;;;;;;;12.73;6.60;;;19.90;99.90;;;;;;5094175;28;20208;-56
2023/08/23 02:47:24;;;;;;;9.68;7.13;;;19.80;99.90;;;;;;5094364;28;20617;-56
2023/08/23 02:49:52;;;;;;;8.15;7.20;;;19.80;99.90;;;;;;5088580;28;20283;-56
2023/08/23 02:52:20;;;;;;;9.50;6.97;;;19.70;99.90;;;;;;5086365;28;20307;-58
2023/08/23 02:54:47;;;;;;;8.38;6.90;;;19.70;99.90;;;;;;5094189;28;20235;-58
2023/08/23 02:57:15;;;;;;;12.95;6.75;;;19.70;99.90;;;;;;5094093;28;20262;-58
2023/08/23 02:59:43;;;;;;;14.25;7.00;;;19.70;99.90;;;;;;5094473;28;20208;-58
2023/08/23 03:02:11;;;;;;;10.32;6.50;;;19.70;99.90;;;;;;5094222;28;20270;-58
2023/08/23 03:04:41;;;;;;;8.32;6.75;;;19.70;99.90;;;;;;5093498;28;20685;-58
2023/08/23 03:07:08;;;;;;;15.95;6.72;;;19.70;99.90;;;;;;5093842;28;20287;-58
2023/08/23 03:09:36;;;;;;;11.20;7.10;;;19.60;99.90;;;;;;5093982;28;20365;-58
2023/08/23 03:12:05;;;;;;;10.57;7.18;;;19.60;99.90;;;;;;5093931;28;20232;-58
2023/08/23 03:14:33;;;;;;;12.05;6.70;;;19.60;99.90;;;;;;5094021;28;20239;-58
2023/08/23 03:17:01;;;;;;;9.38;6.15;;;19.50;99.90;;;;;;5093678;28;20300;-58
2023/08/23 03:19:28;;;;;;;14.60;7.38;;;19.50;99.90;;;;;;5093709;28;20261;-58
2023/08/23 03:21:58;;;;;;;10.57;6.63;;;19.40;99.90;;;;;;5093284;28;20331;-58
2023/08/23 03:24:25;;;;;;;14.27;7.53;;;19.50;99.90;;;;;;5093627;28;20722;-58
2023/08/23 03:26:53;;;;;;;9.48;6.75;;;19.60;99.90;;;;;;5093207;28;20739;-58
2023/08/23 03:29:21;;;;;;;8.43;7.57;;;19.50;99.90;;;;;;5093775;28;20266;-58
2023/08/23 03:31:49;;;;;;;9.98;7.47;;;19.50;99.90;;;;;;5093549;28;20634;-58
2023/08/23 03:34:17;;;;;;;11.35;7.18;;;19.50;99.90;;;;;;5093712;28;20203;-58
2023/08/23 03:36:45;;;;;;;8.27;7.22;;;19.40;99.90;;;;;;5093058;28;20559;-57
2023/08/23 03:39:14;;;;;;;9.43;7.72;;;19.40;99.90;;;;;;5093035;28;20628;-56
2023/08/23 03:41:42;;;;;;;9.25;7.10;;;19.40;99.90;;;;;;5093431;28;20281;-58
2023/08/23 03:44:10;;;;;;;8.65;7.10;;;19.40;99.90;;;;;;5093320;28;20873;-57
2023/08/23 03:46:38;;;;;;;11.40;7.68;;;19.40;99.90;;;;;;5092256;28;20294;-57
2023/08/23 03:49:06;;;;;;;10.43;6.97;;;19.40;99.90;;;;;;5093688;28;20208;-58
2023/08/23 03:51:34;;;;;;;15.30;7.88;;;19.40;99.90;;;;;;5072504;28;20747;-57
2023/08/23 03:54:02;;;;;;;8.35;7.38;;;19.30;99.90;;;;;;5073224;28;20287;-57
2023/08/23 03:56:31;;;;;;;8.90;7.70;;;19.30;99.90;;;;;;5073094;28;20685;-56
2023/08/23 03:58:59;;;;;;;9.23;7.95;;;19.20;99.90;;;;;;5093095;28;20238;-56
2023/08/23 04:01:27;;;;;;;11.55;7.68;;;19.20;99.90;;;;;;5091949;28;20755;-58
2023/08/23 04:03:54;;;;;;;10.15;7.70;;;19.20;99.90;;;;;;5092807;28;20640;-57
2023/08/23 04:06:23;;;;;;;10.82;7.93;;;19.10;99.90;;;;;;5092919;28;20208;-56
2023/08/23 04:08:50;;;;;;;11.18;7.43;;;19.10;99.90;;;;;;5093013;28;20230;-58
2023/08/23 04:11:18;;;;;;;10.63;7.35;;;19.10;99.90;;;;;;5091973;28;20224;-56
2023/08/23 04:13:48;;;;;;;7.88;6.75;;;19.10;99.90;;;;;;5088560;28;20239;-55
2023/08/23 04:16:15;;;;;;;7.78;6.97;;;19.00;99.90;;;;;;5089971;28;20742;-56
2023/08/23 04:18:43;;;;;;;12.57;6.65;;;19.00;99.90;;;;;;5093071;28;20208;-55
2023/08/23 04:21:11;;;;;;;8.45;6.80;;;19.00;99.90;;;;;;5086646;28;20638;-56
2023/08/23 04:23:39;;;;;;;10.75;6.80;;;19.00;99.90;;;;;;5084189;28;20220;-56
2023/08/23 04:26:07;;;;;;;10.20;7.13;;;19.00;99.90;;;;;;5092214;28;20247;-56
2023/08/23 04:28:37;;;;;;;10.02;7.18;;;19.00;99.90;;;;;;5091314;28;20577;-59
2023/08/23 04:31:06;;;;;;;10.90;7.55;;;18.90;99.90;;;;;;5098102;28;20683;-57
2023/08/23 04:33:34;;;;;;;13.45;7.22;;;18.90;99.90;;;;;;5093069;28;20279;-58
2023/08/23 04:36:03;;;;;;;9.43;7.35;;;18.80;99.90;;;;;;5093723;28;20243;-54
2023/08/23 04:38:30;;;;;;;9.10;6.80;;;18.80;99.90;;;;;;5094543;28;20239;-53
2023/08/23 04:41:01;;;;;;;7.68;7.00;;;18.90;99.90;;;;;;5090010;28;20223;-52
2023/08/23 04:43:29;;;;;;;6.75;6.15;;;19.20;99.90;;;;;;5090035;28;20287;-54
2023/08/23 04:45:58;;;;;;;9.27;6.38;;;19.80;99.90;;;;;;5091706;28;20282;-52
2023/08/23 04:48:28;;;;;;;20.15;8.70;;;20.20;99.90;;;;;;5090954;28;20210;-52
2023/08/23 04:50:56;;;;;;;22.15;9.60;;;20.60;99.90;;;;;;5082726;28;20217;-53
2023/08/23 04:53:24;;;;;;;14.35;6.50;;;20.90;99.90;;;;;;5089800;28;20204;-53
2023/08/23 04:55:56;;;;;;;10.27;5.82;;;21.00;99.90;;;;;;5086305;28;20232;-53
2023/08/23 04:58:27;;;;;;;6.00;5.22;;;21.20;99.90;;;;;;5079821;28;20719;-53
2023/08/23 05:00:58;;;;;;;5.90;5.38;;;21.20;99.90;;;;;;5092276;28;20315;-53
2023/08/23 05:03:27;;;;;;;9.65;5.10;;;21.20;99.90;;;;;;5089586;28;20710;-53
2023/08/23 05:05:55;;;;;;;6.22;5.18;;;21.20;99.90;;;;;;5071309;28;20247;-52
2023/08/23 05:08:23;;;;;;;6.25;5.18;;;21.10;99.90;;;;;;5084704;28;20219;-53
2023/08/23 05:10:54;;;;;;;8.05;4.88;;;21.10;99.90;;;;;;5089038;28;20263;-52
2023/08/23 05:13:22;;;;;;;7.75;5.15;;;21.10;99.90;;;;;;5091011;28;20238;-57
2023/08/23 05:15:53;;;;;;;6.70;4.95;;;21.10;99.90;;;;;;5085331;28;20635;-56
2023/08/23 05:18:21;;;;;;;6.43;5.30;;;21.10;99.90;;;;;;5088914;28;20200;-57
2023/08/23 05:20:55;;;;;;;7.88;5.00;;;21.20;99.90;;;;;;5082716;28;20376;-57
2023/08/23 05:23:23;;;;;;;6.68;4.82;;;21.20;99.90;;;;;;5085349;28;20610;-58
2023/08/23 05:25:52;;;;;;;6.65;4.80;;;21.30;99.90;;;;;;5091478;28;20256;-56
2023/08/23 05:28:19;;;;;;;12.77;4.72;;;21.30;99.90;;;;;;5089228;28;20611;-56
2023/08/23 05:30:47;;;;;;;6.28;4.97;;;21.20;99.90;;;;;;5089383;28;20356;-53
2023/08/23 05:33:15;;;;;;;5.28;4.65;;;21.20;99.90;;;;;;5089412;28;20299;-52
2023/08/23 05:35:43;;;;;;;6.05;4.40;;;21.20;99.90;;;;;;5088285;28;20211;-54
2023/08/23 05:38:13;;;;;;;5.57;4.38;;;21.30;99.90;;;;;;5089450;28;20250;-55
2023/08/23 05:40:41;;;;;;;6.75;4.68;;;21.30;99.90;;;;;;5088953;28;20318;-53
2023/08/23 05:43:08;;;;;;;5.97;5.30;;;21.40;99.90;;;;;;5089987;28;20322;-54
2023/08/23 05:45:36;;;;;;;8.40;5.50;;;21.40;99.90;;;;;;5093707;28;20200;-52
2023/08/23 05:48:05;;;;;;;5.90;5.15;;;21.30;99.90;;;;;;5091029;28;20208;-53
2023/08/23 05:50:33;;;;;;;8.85;5.47;;;21.30;99.90;;;;;;5092824;28;20256;-52
2023/08/23 05:53:01;;;;;;;5.97;4.88;;;21.30;99.90;;;;;;5091804;28;20206;-52
2023/08/23 05:55:30;;;;;;;7.75;5.07;;;21.30;99.90;;;;;;5083935;28;20201;-52
2023/08/23 05:57:58;;;;;;;6.65;5.07;;;21.30;99.90;;;;;;5090926;28;20584;-54
2023/08/23 06:00:26;;;;;;;8.10;5.07;;;21.40;99.90;;;;;;5090737;28;20303;-54
2023/08/23 06:02:54;;;;;;;7.03;4.97;;;21.40;99.90;;;;;;5093499;28;20276;-52
2023/08/23 06:05:22;;;;;;;11.68;5.45;;;21.40;99.90;;;;;;5092354;28;20201;-52
2023/08/23 06:07:50;;;;;;;7.68;5.18;;;21.40;99.90;;;;;;5092410;28;20215;-53
2023/08/23 06:10:18;;;;;;;10.50;5.85;;;21.50;99.90;;;;;;5091198;28;20707;-52
2023/08/23 06:12:47;;;;;;;7.30;6.10;;;21.50;99.90;;;;;;5090111;28;20243;-52
2023/08/23 06:15:15;;;;;;;8.63;5.45;;;21.50;99.90;;;;;;5089369;28;20204;-52
2023/08/23 06:17:43;;;;;;;10.30;5.35;;;21.50;99.90;;;;;;5096150;28;20208;-53
2023/08/23 06:20:12;;;;;;;10.82;5.60;;;21.60;99.90;;;;;;5090785;28;20604;-53
2023/08/23 06:22:39;;;;;;;7.90;5.00;;;21.70;99.90;;;;;;5091116;28;20287;-52
2023/08/23 06:25:08;;;;;;;7.18;5.68;;;21.70;99.90;;;;;;5094866;28;20291;-52
2023/08/23 06:27:36;;;;;;;8.02;5.57;;;21.80;99.90;;;;;;5093655;28;20219;-55
2023/08/23 06:30:06;;;;;;;7.70;6.05;;;21.90;99.90;;;;;;5093123;28;20627;-53
2023/08/23 06:32:34;;;;;;;11.30;6.50;;;22.00;99.90;;;;;;5094025;28;20295;-52
2023/08/23 06:35:03;;;;;;;12.50;6.43;;;22.00;99.90;;;;;;5094379;28;20204;-61
2023/08/23 06:37:30;;;;;;;8.75;6.35;;;22.00;99.90;;;;;;5083275;28;20210;-60
2023/08/23 06:39:58;;;;;;;10.05;7.05;;;21.90;99.90;;;;;;5074101;28;20774;-60
2023/08/23 06:42:26;;;;;;;10.02;7.53;;;21.80;99.90;;;;;;5073666;28;20585;-61
2023/08/23 06:44:54;;;;;;;11.80;7.50;;;21.70;99.90;;;;;;5074059;28;20670;-60
2023/08/23 06:47:26;;;;;;;8.63;7.82;;;21.60;99.90;;;;;;5074056;28;20193;-60
2023/08/23 06:49:54;;;;;;;13.63;7.80;;;21.60;99.90;;;;;;5074080;28;20225;-60
2023/08/23 06:52:21;;;;;;;8.05;6.85;;;21.40;99.90;;;;;;5093722;28;20229;-60
2023/08/23 06:54:49;;;;;;;14.20;7.22;;;21.40;99.90;;;;;;5094184;28;20291;-61
2023/08/23 06:57:17;;;;;;;13.57;8.05;;;21.30;99.90;;;;;;5093861;28;20257;-61
2023/08/23 06:59:45;;;;;;;12.48;6.78;;;21.30;99.90;;;;;;5093986;28;20261;-61
2023/08/23 07:02:13;;;;;;;9.45;7.38;;;21.30;99.90;;;;;;5093785;28;20212;-61
2023/08/23 07:04:42;;;;;;;13.18;8.23;;;21.40;99.90;;;;;;5093751;28;20255;-61
2023/08/23 07:07:10;;;;;;;15.85;7.28;;;21.40;99.90;;;;;;5093867;28;20636;-61
2023/08/23 07:09:38;;;;;;;15.63;7.20;;;21.50;99.90;;;;;;5093965;28;20294;-63
2023/08/23 07:12:07;;;;;;;11.45;8.13;;;21.70;99.90;;;;;;5094091;28;20208;-63
2023/08/23 07:14:34;;;;;;;16.55;8.68;;;21.90;99.90;;;;;;5093967;28;20295;-63
2023/08/23 07:17:02;;;;;;;17.27;7.78;;;22.00;99.90;;;;;;5093413;28;20628;-62
2023/08/23 07:19:30;;;;;;;10.65;7.88;;;22.10;99.90;;;;;;5093774;28;20235;-61
2023/08/23 07:22:00;;;;;;;11.88;7.32;;;22.20;99.90;;;;;;5093399;28;20641;-61
2023/08/23 07:24:28;;;;;;;14.10;8.48;;;22.20;99.90;;;;;;5093751;28;20223;-63
2023/08/23 07:26:56;;;;;;;12.38;6.97;;;22.10;99.90;;;;;;5093515;28;20207;-63
2023/08/23 07:29:24;;;;;;;11.07;7.35;;;22.20;99.90;;;;;;5093667;28;20230;-63
2023/08/23 07:31:52;;;;;;;13.50;7.40;;;22.20;99.90;;;;;;5093460;28;20262;-63
2023/08/23 07:34:20;;;;;;;12.18;7.80;;;22.20;99.90;;;;;;5093603;28;20207;-63
2023/08/23 07:36:48;;;;;;;14.02;7.95;;;22.20;99.90;;;;;;5092604;28;20299;-64
2023/08/23 07:39:18;;;;;;;10.23;6.97;;;22.20;99.90;;;;;;5093035;28;20261;-64
2023/08/23 07:41:46;;;;;;;14.75;8.23;;;22.20;99.90;;;;;;5092816;28;20256;-64
2023/08/23 07:44:13;;;;;;;11.40;6.68;;;22.30;99.90;;;;;;5092769;28;20224;-63
2023/08/23 07:46:41;;;;;;;7.95;6.97;;;22.30;99.90;;;;;;5092656;28;20232;-63
2023/08/23 07:49:09;;;;;;;10.48;6.97;;;22.40;99.90;;;;;;5093024;28;20272;-64
2023/08/23 07:51:37;;;;;;;11.25;6.80;;;22.50;99.90;;;;;;5092989;28;20216;-64
2023/08/23 07:54:06;;;;;;;10.43;7.05;;;22.60;99.90;;;;;;5092824;28;20200;-64
2023/08/23 07:56:35;;;;;;;8.73;7.65;;;22.70;99.90;;;;;;5092727;28;20211;-64
2023/08/23 07:59:03;;;;;;;15.52;7.28;;;22.70;99.90;;;;;;5091463;28;20208;-64
2023/08/23 08:01:31;;;;;;;14.00;6.90;;;22.80;99.90;;;;;;5090513;28;20338;-64
2023/08/23 08:03:59;;;;;;;7.88;6.43;;;22.90;99.90;;;;;;5091722;28;20281;-64
2023/08/23 08:06:27;;;;;;;11.05;6.47;;;23.00;99.90;;;;;;5092146;28;20590;-64
2023/08/23 08:08:54;;;;;;;8.88;6.50;;;23.10;99.90;;;;;;5092652;28;20212;-64
2023/08/23 08:11:22;;;;;;;19.60;6.43;;;23.20;99.90;;;;;;5091012;28;20256;-65
2023/08/23 08:13:52;;;;;;;13.30;6.18;;;23.30;99.90;;;;;;5092216;28;20629;-63
2023/08/23 08:16:19;;;;;;;8.38;5.70;;;23.40;99.90;;;;;;5087277;28;20326;-63
2023/08/23 08:18:47;;;;;;;10.70;5.95;;;23.50;99.90;;;;;;5112122;28;20242;-64
2023/08/23 08:21:17;;;;;;;11.05;5.50;;;23.60;99.90;;;;;;5111128;28;20282;-64
2023/08/23 08:23:46;;;;;;;8.82;5.43;;;23.70;99.90;;;;;;5092624;28;20592;-64
2023/08/23 08:26:14;;;;;;;11.25;5.00;;;23.80;99.90;;;;;;5092488;28;20208;-64
2023/08/23 08:28:43;;;;;;;12.15;5.60;;;23.90;99.90;;;;;;5092312;28;20212;-64
2023/08/23 08:31:13;;;;;;;9.43;5.15;;;24.00;99.90;;;;;;5092812;28;20228;-64
2023/08/23 08:33:41;;;;;;;14.20;5.00;;;24.00;99.90;;;;;;5092708;28;20207;-64
2023/08/23 08:36:09;;;;;;;7.35;4.53;;;24.00;99.90;;;;;;5092581;28;20232;-63
2023/08/23 08:38:39;;;;;;;7.97;4.63;;;24.20;99.90;;;;;;5092305;28;20730;-64
2023/08/23 08:41:08;;;;;;;9.57;5.05;;;24.30;99.90;;;;;;5092412;28;20256;-63
2023/08/23 08:43:36;;;;;;;5.15;4.43;;;24.40;99.90;;;;;;5092589;28;20192;-63
2023/08/23 08:46:06;;;;;;;7.80;4.68;;;24.50;99.90;;;;;;5092514;28;20232;-63
2023/08/23 08:48:35;;;;;;;6.30;4.97;;;24.60;99.90;;;;;;5092500;28;20525;-63
2023/08/23 08:51:03;;;;;;;9.57;4.30;;;24.70;99.90;;;;;;5092784;28;20255;-63
2023/08/23 08:53:31;;;;;;;7.07;4.75;;;24.80;99.90;;;;;;5091770;28;20199;-63
2023/08/23 08:56:00;;;;;;;11.48;3.90;;;24.90;99.90;;;;;;5091873;28;20207;-63
2023/08/23 08:58:27;;;;;;;7.10;3.95;;;25.00;99.90;;;;;;5091349;28;20288;-63
2023/08/23 09:00:55;;;;;;;9.30;4.32;;;25.10;99.90;;;;;;5091726;28;20268;-63
2023/08/23 09:03:23;;;;;;;9.93;3.83;;;25.30;99.90;;;;;;5091715;28;20650;-64
2023/08/23 09:05:53;;;;;;;7.50;3.83;;;25.40;99.90;;;;;;5091387;28;20289;-63
2023/08/23 09:08:20;;;;;;;5.07;4.20;;;25.50;99.90;;;;;;5091398;28;20301;-64
2023/08/23 09:10:48;;;;;;;10.07;4.20;;;25.60;99.90;;;;;;5091656;28;20303;-63
2023/08/23 09:13:16;;;;;;;10.07;4.10;;;25.60;99.90;;;;;;5091545;28;20214;-63
2023/08/23 09:15:47;;;;;;;7.93;3.88;;;25.80;99.90;;;;;;5090975;28;20667;-63
2023/08/23 09:18:15;;;;;;;8.48;4.15;;;25.90;99.90;;;;;;5091528;28;20204;-63
2023/08/23 09:20:43;;;;;;;5.45;3.30;;;26.00;99.90;;;;;;5091097;28;20306;-63
2023/08/23 09:23:12;;;;;;;7.00;3.38;;;26.20;99.90;;;;;;5091689;28;20336;-63
2023/08/23 09:25:40;;;;;;;7.07;3.63;;;26.30;99.90;;;;;;5091352;28;20223;-63
2023/08/23 09:28:12;;;;;;;8.48;3.60;;;26.50;99.90;;;;;;5091312;28;20691;-63
2023/08/23 09:30:40;;;;;;;5.78;3.20;;;26.70;99.90;;;;;;5091478;28;20259;-63
2023/08/23 09:33:10;;;;;;;8.10;3.50;;;26.80;99.90;;;;;;5090215;28;20188;-63
2023/08/23 09:35:47;;;;;;;8.23;3.30;;;26.90;99.90;;;;;;5090641;28;20203;-63
2023/08/23 09:38:20;;;;;;;8.40;3.70;;;27.10;99.90;;;;;;5091669;28;20299;-63
2023/08/23 09:40:48;;;;;;;7.60;3.45;;;27.30;99.90;;;;;;5091289;28;20277;-63
2023/08/23 09:43:16;;;;;;;13.90;3.17;;;27.30;99.90;;;;;;5091080;28;20211;-63
2023/08/23 09:45:44;;;;;;;7.10;3.40;;;27.40;99.90;;;;;;5091085;28;20285;-63
2023/08/23 09:48:13;;;;;;;5.80;3.15;;;27.50;99.90;;;;;;5091354;28;20208;-63
2023/08/23 09:50:41;;;;;;;11.50;3.13;;;27.60;99.90;;;;;;5091701;28;20285;-63
2023/08/23 09:53:13;;;;;;;7.72;3.30;;;27.80;99.90;;;;;;5091307;28;20735;-63
2023/08/23 09:55:42;;;;;;;3.45;3.05;;;28.00;99.90;;;;;;5091247;28;20204;-63
2023/08/23 09:58:10;;;;;;;11.02;2.90;;;28.20;99.90;;;;;;5091169;28;20203;-63
2023/08/23 10:00:38;;;;;;;8.70;3.05;;;28.30;99.90;;;;;;5095076;28;20230;-63
2023/08/23 10:03:07;;;;;;;8.20;2.95;;;28.50;99.90;;;;;;5095066;28;20667;-63
2023/08/23 10:05:35;;;;;;;9.73;2.97;;;28.70;99.90;;;;;;5093824;28;20216;-64
2023/08/23 10:08:03;;;;;;;7.00;3.00;;;28.90;99.90;;;;;;5095616;28;20671;-64
2023/08/23 10:10:31;;;;;;;12.55;2.83;;;29.10;99.90;;;;;;5094317;28;20251;-63
2023/08/23 10:13:04;;;;;;;6.85;3.03;;;29.30;99.90;;;;;;5094885;28;20287;-64
2023/08/23 10:15:33;;;;;;;7.82;2.60;;;29.50;99.90;;;;;;5097815;28;20210;-63
2023/08/23 10:18:02;;;;;;;6.07;2.50;;;29.60;99.90;;;;;;5097287;28;20239;-64
2023/08/23 10:20:33;;;;;;;5.30;2.90;;;29.80;99.90;;;;;;5093791;28;20216;-64
2023/08/23 10:23:01;;;;;;;6.38;2.28;;;30.00;99.90;;;;;;5098241;28;20655;-64
2023/08/23 10:25:33;;;;;;;8.75;2.90;;;30.20;99.90;;;;;;5094469;28;20255;-63
2023/08/23 10:28:05;;;;;;;6.82;2.38;;;30.20;99.90;;;;;;5092926;28;20292;-62
2023/08/23 10:30:32;;;;;;;6.97;2.40;;;30.50;99.90;;;;;;5083564;28;20252;-62
2023/08/23 10:33:08;;;;;;;6.53;2.40;;;30.60;99.90;;;;;;5074362;28;20211;-62
2023/08/23 10:35:36;;;;;;;9.40;2.20;;;30.80;99.90;;;;;;5074358;28;20200;-62
2023/08/23 10:38:05;;;;;;;4.25;2.20;;;31.00;99.90;;;;;;5074207;28;20291;-62
2023/08/23 10:40:33;;;;;;;3.83;2.13;;;31.10;99.90;;;;;;5074549;28;20286;-62
2023/08/23 10:43:09;;;;;;;6.95;2.33;;;31.20;99.90;;;;;;5074291;28;20204;-62
2023/08/23 10:45:51;;;;;;;7.28;2.15;;;31.30;99.90;;;;;;5086757;28;20311;-62
2023/08/23 10:48:19;;;;;;;4.18;2.20;;;31.70;99.90;;;;;;5094038;28;20214;-62
2023/08/23 10:50:48;;;;;;;3.83;2.42;;;31.90;99.90;;;;;;5100352;28;20220;-62
2023/08/23 10:53:16;;;;;;;5.72;2.50;;;32.10;99.90;;;;;;5114412;28;20289;-62
2023/08/23 10:55:44;;;;;;;10.63;2.60;;;32.30;99.90;;;;;;5097530;28;20714;-62
2023/08/23 10:58:14;;;;;;;7.70;2.53;;;32.40;99.90;;;;;;5094026;28;20253;-61
2023/08/23 11:00:42;;;;;;;9.65;2.50;;;32.60;99.90;;;;;;5087309;28;20224;-62
2023/08/23 11:03:11;;;;;;;5.28;2.33;;;32.80;99.90;;;;;;5094028;28;20623;-62
2023/08/23 11:05:39;;;;;;;4.03;2.20;;;33.10;99.90;;;;;;5092760;28;20223;-61
2023/08/23 11:08:08;;;;;;;5.78;2.40;;;33.20;99.90;;;;;;5093364;28;20746;-61
2023/08/23 11:10:37;;;;;;;3.03;2.05;;;33.40;99.90;;;;;;5092668;28;20224;-62
2023/08/23 11:13:05;;;;;;;6.63;2.47;;;33.30;99.90;;;;;;5093603;28;20211;-62
2023/08/23 11:15:35;;;;;;;2.92;2.03;;;33.30;99.90;;;;;;5093514;28;20825;-62
2023/08/23 11:18:03;;;;;;;3.13;2.22;;;33.00;99.90;;;;;;5093896;28;20243;-62
2023/08/23 11:20:31;;;;;;;5.55;2.38;;;32.70;99.90;;;;;;5093779;28;20230;-62
2023/08/23 11:22:59;;;;;;;4.57;2.40;;;32.50;99.90;;;;;;5093675;28;20208;-61
2023/08/23 11:25:26;;;;;;;5.82;2.45;;;32.40;99.90;;;;;;5093662;28;20235;-62
2023/08/23 11:27:54;;;;;;;5.07;2.33;;;32.30;99.90;;;;;;5093702;28;20257;-62
2023/08/23 11:30:22;;;;;;;6.63;2.08;;;32.20;99.90;;;;;;5093791;28;20224;-62
2023/08/23 11:32:52;;;;;;;5.25;1.77;;;32.30;99.90;;;;;;5093515;28;20261;-62
2023/08/23 11:35:22;;;;;;;5.97;2.20;;;32.30;99.90;;;;;;5093449;28;20273;-62
2023/08/23 11:37:50;;;;;;;3.55;2.05;;;32.40;99.90;;;;;;5093469;28;20211;-62
2023/08/23 11:40:18;;;;;;;2.58;2.03;;;32.50;99.90;;;;;;5093224;28;20231;-62
2023/08/23 11:42:46;;;;;;;3.75;2.17;;;32.50;99.90;;;;;;5093560;28;20240;-62
2023/08/23 11:45:14;;;;;;;2.90;1.80;;;32.50;99.90;;;;;;5093206;28;20287;-62
2023/08/23 11:47:42;;;;;;;2.53;1.60;;;32.50;99.20;;;;;;5093206;28;20256;-62
2023/08/23 11:50:11;;;;;;;3.88;1.95;;;32.50;99.00;;;;;;5093270;28;20289;-62
2023/08/23 11:52:41;;;;;;;7.68;2.22;;;32.60;99.80;;;;;;5092912;28;20293;-62
2023/08/23 11:55:09;;;;;;;4.68;1.92;;;32.70;99.90;;;;;;5093029;28;20215;-62
2023/08/23 11:57:37;;;;;;;3.13;2.08;;;32.60;98.90;;;;;;5093134;28;20239;-62
2023/08/23 12:00:07;;;;;;;6.10;2.28;;;32.80;97.90;;;;;;5092862;28;20255;-62
2023/08/23 12:02:35;;;;;;;4.18;1.88;;;32.70;99.70;;;;;;5092783;28;20254;-62
2023/08/23 12:05:03;;;;;;;9.07;2.08;;;32.70;99.00;;;;;;5079244;28;20208;-62
2023/08/23 12:07:32;;;;;;;5.18;1.75;;;32.80;98.90;;;;;;5079902;28;20285;-63
2023/08/23 12:10:00;;;;;;;3.00;1.88;;;32.80;96.70;;;;;;5092540;28;20266;-62
2023/08/23 12:12:28;;;;;;;4.80;1.60;;;32.80;98.10;;;;;;5092577;28;20208;-62
2023/08/23 12:14:56;;;;;;;4.55;1.90;;;32.90;97.20;;;;;;5092193;28;20634;-62
2023/08/23 12:17:24;;;;;;;3.70;1.63;;;32.90;95.60;;;;;;5092362;28;20664;-62
2023/08/23 12:19:51;;;;;;;8.95;1.92;;;33.00;95.90;;;;;;5092020;28;20238;-62
2023/08/23 12:22:19;;;;;;;5.38;1.70;;;32.90;95.80;;;;;;5091859;28;20208;-63
2023/08/23 12:24:49;;;;;;;6.07;1.60;;;32.80;97.40;;;;;;5091709;28;20420;-63
2023/08/23 12:27:17;;;;;;;8.35;1.83;;;32.80;96.10;;;;;;5092389;28;20314;-64
2023/08/23 12:29:44;;;;;;;2.63;1.83;;;32.80;96.20;;;;;;5092311;28;20239;-63
2023/08/23 12:32:12;;;;;;;7.82;1.85;;;32.90;95.00;;;;;;5092081;28;20204;-64
2023/08/23 12:34:40;;;;;;;9.60;2.00;;;33.00;95.70;;;;;;5091658;28;20241;-63
2023/08/23 12:37:08;;;;;;;2.72;1.73;;;33.00;94.70;;;;;;5092401;28;20287;-63
2023/08/23 12:39:39;;;;;;;3.55;1.80;;;33.10;95.90;;;;;;5092187;28;20286;-63
2023/08/23 12:42:08;;;;;;;8.63;1.63;;;33.10;96.10;;;;;;5092353;28;20646;-63
2023/08/23 12:44:36;;;;;;;4.55;2.05;;;33.20;96.30;;;;;;5090763;28;20208;-64
2023/08/23 12:47:04;;;;;;;5.40;1.58;;;33.20;95.40;;;;;;5091681;28;20277;-64
2023/08/23 12:49:32;;;;;;;2.28;1.80;;;33.30;96.50;;;;;;5091451;28;20204;-63